aviador You're here:

KLSF Decoded Metar

FORT BENNING in GA, USA
Report Time2017-07-24 16:09:00
UTC Time2017-07-24 16:46:16
Flight Rules vfr VFR
Wind240° at 05 kt
W.Decomp.*RWY 33: 0.2 kt HW 5 kt LCW
W.Rank240° ranks 36
Current wind is below 240° avg. (5.1)
Visibility9999 m
Phenomena:N/A
Clouds:Few 027 Hf
Scattered 041 Hf
Broken 070 Hf
Expected CloudBase > 2,400 ft AGL from Temp-Dew spread
Ceiling7,000 ft
Temp30°C (ISA +15)
Dew Point24°C (70% RH)
Heat Index35.0°C
QNH1016 hPa
Density Alt2,297 ft
Elevation233 ft
Report Wrong Elevation
Raw Report
KLSF 241609Z 24005KT 10SM FEW027 SCT041 BKN070 30/24 A2999 RMK
AO2A SLP158=

Extra information for KLSF:More info

Metar Taf Metar & Taf Last 4 Metars F.Rules Stats Wind Profile Meteogram Temp Stats Airport Information Weather charts Add Link Nearby VenuesMetar ALERT Operation Metar Decoded Social comments

AIRNAV info for KLSF